createdAt,value
2018-03-29T00:00:55.706Z,998.63
2018-03-29T00:01:55.499Z,998.61
2018-03-29T00:02:55.491Z,998.64
2018-03-29T00:03:55.482Z,998.66
2018-03-29T00:04:55.466Z,998.65
2018-03-29T00:05:55.470Z,998.71
2018-03-29T00:06:55.447Z,998.66
2018-03-29T00:07:55.670Z,998.64
2018-03-29T00:08:55.446Z,998.65
2018-03-29T00:09:55.445Z,998.69
2018-03-29T00:10:55.433Z,998.69
2018-03-29T00:11:55.411Z,998.66
2018-03-29T00:12:55.609Z,998.73
2018-03-29T00:13:55.404Z,998.74
2018-03-29T00:14:55.408Z,998.69
2018-03-29T00:15:55.407Z,998.76
2018-03-29T00:16:55.386Z,998.74
2018-03-29T00:17:55.574Z,998.74
2018-03-29T00:18:55.380Z,998.70
2018-03-29T00:19:55.372Z,998.69
2018-03-29T00:20:55.366Z,998.73
2018-03-29T00:21:55.352Z,998.74
2018-03-29T00:22:55.335Z,998.78
2018-03-29T00:23:55.340Z,998.80
2018-03-29T00:24:55.351Z,998.81
2018-03-29T00:25:55.323Z,998.86
2018-03-29T00:26:55.326Z,998.80
2018-03-29T00:27:55.321Z,998.85
2018-03-29T00:28:55.497Z,998.88
2018-03-29T00:29:55.492Z,998.89
2018-03-29T00:30:55.279Z,998.83
2018-03-29T00:31:55.311Z,998.89
2018-03-29T00:32:55.291Z,998.86
2018-03-29T00:33:55.270Z,998.86
2018-03-29T00:34:55.260Z,998.87
2018-03-29T00:35:55.244Z,998.90
2018-03-29T00:36:55.443Z,998.90
2018-03-29T00:37:55.231Z,998.88
2018-03-29T00:38:55.224Z,998.95
2018-03-29T00:39:55.228Z,998.94
2018-03-29T00:40:55.223Z,998.97
2018-03-29T00:41:55.202Z,998.96
2018-03-29T00:42:55.206Z,998.99
2018-03-29T00:43:55.196Z,998.97
2018-03-29T00:44:55.383Z,998.98
2018-03-29T00:45:55.211Z,999.06
2018-03-29T00:46:55.180Z,999.07
2018-03-29T00:47:55.362Z,999.05
2018-03-29T00:48:55.161Z,999.07
2018-03-29T00:49:55.156Z,999.05
2018-03-29T00:50:55.136Z,999.09
2018-03-29T00:51:55.347Z,999.06
2018-03-29T00:52:55.125Z,999.14
2018-03-29T00:53:55.120Z,999.10
2018-03-29T00:54:55.325Z,999.12
2018-03-29T00:55:55.103Z,999.11
2018-03-29T00:56:55.301Z,999.13
2018-03-29T00:57:55.089Z,999.12
2018-03-29T00:58:55.286Z,999.14
2018-03-29T00:59:55.291Z,999.11
2018-03-29T01:00:55.080Z,999.13
2018-03-29T01:01:55.063Z,999.17
2018-03-29T01:02:55.052Z,999.19
2018-03-29T01:03:55.263Z,999.17
2018-03-29T01:04:55.061Z,999.19
2018-03-29T01:05:55.045Z,999.20
2018-03-29T01:06:55.229Z,999.21
2018-03-29T01:07:55.033Z,999.16
2018-03-29T01:08:55.024Z,999.25
2018-03-29T01:09:55.016Z,999.26
2018-03-29T01:10:55.009Z,999.27
2018-03-29T01:11:54.994Z,999.26
2018-03-29T01:12:54.996Z,999.27
2018-03-29T01:13:54.976Z,999.23
2018-03-29T01:14:55.173Z,999.24
2018-03-29T01:15:54.965Z,999.28
2018-03-29T01:16:54.991Z,999.26
2018-03-29T01:17:54.972Z,999.22
2018-03-29T01:18:54.951Z,999.26
2018-03-29T01:19:55.138Z,999.27
2018-03-29T01:20:55.142Z,999.31
2018-03-29T01:21:54.917Z,999.34
2018-03-29T01:22:54.923Z,999.31
2018-03-29T01:23:55.118Z,999.31
2018-03-29T01:24:54.919Z,999.31
2018-03-29T01:25:54.891Z,999.30
2018-03-29T01:26:54.896Z,999.34
2018-03-29T01:27:54.877Z,999.34
2018-03-29T01:28:54.884Z,999.35
2018-03-29T01:29:54.868Z,999.37
2018-03-29T01:30:54.872Z,999.36
2018-03-29T01:31:54.851Z,999.35
2018-03-29T01:32:54.858Z,999.31
2018-03-29T01:33:55.041Z,999.34
2018-03-29T01:34:54.840Z,999.33
2018-03-29T01:35:54.839Z,999.38
2018-03-29T01:36:55.020Z,999.39
2018-03-29T01:37:54.830Z,999.39
2018-03-29T01:38:54.815Z,999.39
2018-03-29T01:39:54.794Z,999.38
2018-03-29T01:40:54.798Z,999.39
2018-03-29T01:41:54.788Z,999.42
2018-03-29T01:42:54.788Z,999.43
2018-03-29T01:43:54.801Z,999.46
2018-03-29T01:44:54.976Z,999.48
2018-03-29T01:45:54.753Z,999.51
2018-03-29T01:46:54.767Z,999.51
2018-03-29T01:47:54.739Z,999.55
2018-03-29T01:48:54.743Z,999.51
2018-03-29T01:49:54.932Z,999.52
2018-03-29T01:50:54.741Z,999.53
2018-03-29T01:51:54.940Z,999.56
2018-03-29T01:52:54.917Z,999.56
2018-03-29T01:53:54.902Z,999.54
2018-03-29T01:54:54.894Z,999.52
2018-03-29T01:55:54.684Z,999.57
2018-03-29T01:56:54.675Z,999.58
2018-03-29T01:57:54.694Z,999.62
2018-03-29T01:58:54.866Z,999.60
2018-03-29T01:59:54.669Z,999.61
2018-03-29T02:00:54.651Z,999.61
2018-03-29T02:01:54.882Z,999.62
2018-03-29T02:02:54.644Z,999.64
2018-03-29T02:03:54.640Z,999.64
2018-03-29T02:04:54.620Z,999.66
2018-03-29T02:05:54.828Z,999.68
2018-03-29T02:06:54.608Z,999.66
2018-03-29T02:07:54.601Z,999.67
2018-03-29T02:08:54.595Z,999.68
2018-03-29T02:09:54.617Z,999.65
2018-03-29T02:10:54.582Z,999.67
2018-03-29T02:11:54.589Z,999.68
2018-03-29T02:12:54.566Z,999.67
2018-03-29T02:13:54.571Z,999.72
2018-03-29T02:14:54.549Z,999.67
2018-03-29T02:15:54.555Z,999.71
2018-03-29T02:16:54.549Z,999.76
2018-03-29T02:17:54.548Z,999.78
2018-03-29T02:18:54.537Z,999.80
2018-03-29T02:19:54.531Z,999.80
2018-03-29T02:20:54.513Z,999.83
2018-03-29T02:21:54.504Z,999.81
2018-03-29T02:22:54.506Z,999.81
2018-03-29T02:23:54.512Z,999.80
2018-03-29T02:24:54.486Z,999.82
2018-03-29T02:25:54.476Z,999.82
2018-03-29T02:26:54.479Z,999.84
2018-03-29T02:27:54.461Z,999.81
2018-03-29T02:28:54.467Z,999.81
2018-03-29T02:29:54.449Z,999.84
2018-03-29T02:30:54.469Z,999.83
2018-03-29T02:31:54.433Z,999.84
2018-03-29T02:32:54.649Z,999.83
2018-03-29T02:33:54.422Z,999.83
2018-03-29T02:34:54.631Z,999.80
2018-03-29T02:35:54.432Z,999.83
2018-03-29T02:36:54.618Z,999.79
2018-03-29T02:37:54.611Z,999.80
2018-03-29T02:38:54.604Z,999.86
2018-03-29T02:39:54.381Z,999.83
2018-03-29T02:40:54.589Z,999.86
2018-03-29T02:41:54.369Z,999.85
2018-03-29T02:42:54.564Z,999.85
2018-03-29T02:43:54.560Z,999.88
2018-03-29T02:44:54.345Z,999.86
2018-03-29T02:45:54.351Z,999.87
2018-03-29T02:46:54.345Z,999.89
2018-03-29T02:47:54.541Z,999.88
2018-03-29T02:48:54.444Z,999.88
2018-03-29T02:49:54.536Z,999.94
2018-03-29T02:50:54.331Z,999.88
2018-03-29T02:51:54.312Z,999.91
2018-03-29T02:52:54.308Z,999.90
2018-03-29T02:53:54.311Z,999.89
2018-03-29T02:54:54.303Z,999.87
2018-03-29T02:55:54.274Z,999.89
2018-03-29T02:56:54.470Z,999.85
2018-03-29T02:57:54.271Z,999.87
2018-03-29T02:58:54.262Z,999.93
2018-03-29T02:59:54.462Z,999.91
2018-03-29T03:00:54.250Z,999.95
2018-03-29T03:01:54.237Z,999.94
2018-03-29T03:02:54.222Z,999.92
2018-03-29T03:03:54.420Z,999.95
2018-03-29T03:04:54.225Z,999.97
2018-03-29T03:05:54.208Z,999.95
2018-03-29T03:06:54.210Z,1000.01
2018-03-29T03:07:54.219Z,999.99
2018-03-29T03:08:54.186Z,1000.06
2018-03-29T03:09:54.177Z,1000.10
2018-03-29T03:10:54.170Z,1000.02
2018-03-29T03:11:54.390Z,1000.04
2018-03-29T03:12:54.158Z,1000.02
2018-03-29T03:13:54.148Z,1000.09
2018-03-29T03:14:54.152Z,1000.09
2018-03-29T03:15:54.134Z,1000.10
2018-03-29T03:16:54.165Z,1000.07
2018-03-29T03:17:54.124Z,1000.11
2018-03-29T03:18:54.128Z,1000.12
2018-03-29T03:19:54.120Z,1000.14
2018-03-29T03:20:54.121Z,1000.07
2018-03-29T03:21:54.102Z,1000.09
2018-03-29T03:22:54.098Z,1000.11
2018-03-29T03:23:54.081Z,1000.09
2018-03-29T03:24:54.075Z,1000.09
2018-03-29T03:25:54.079Z,1000.10
2018-03-29T03:26:54.071Z,1000.14
2018-03-29T03:27:54.062Z,1000.14
2018-03-29T03:28:54.050Z,1000.12
2018-03-29T03:29:54.042Z,1000.12
2018-03-29T03:30:54.239Z,1000.06
2018-03-29T03:31:54.049Z,1000.05
2018-03-29T03:32:54.023Z,1000.00
2018-03-29T03:33:54.241Z,1000.00
2018-03-29T03:34:54.220Z,999.96
2018-03-29T03:35:54.206Z,999.92
2018-03-29T03:36:54.199Z,999.91
2018-03-29T03:37:54.000Z,999.91
2018-03-29T03:38:53.981Z,999.89
2018-03-29T03:39:54.178Z,999.88
2018-03-29T03:40:54.185Z,999.90
2018-03-29T03:41:54.173Z,999.87
2018-03-29T03:42:54.171Z,999.90
2018-03-29T03:43:53.959Z,999.89
2018-03-29T03:44:53.955Z,999.90
2018-03-29T03:45:53.963Z,999.94
2018-03-29T03:46:53.943Z,999.95
2018-03-29T03:47:53.922Z,999.98
2018-03-29T03:48:54.129Z,1000.01
2018-03-29T03:49:53.905Z,1000.04
2018-03-29T03:50:54.123Z,1000.08
2018-03-29T03:51:54.098Z,1000.07
2018-03-29T03:52:54.104Z,1000.06
2018-03-29T03:53:53.881Z,1000.09
2018-03-29T03:54:53.873Z,1000.07
2018-03-29T03:55:53.878Z,1000.05
2018-03-29T03:56:53.888Z,1000.04
2018-03-29T03:57:53.866Z,1000.06
2018-03-29T03:58:53.861Z,1000.05
2018-03-29T03:59:53.842Z,1000.06
2018-03-29T04:00:54.063Z,1000.08
2018-03-29T04:01:53.857Z,1000.12
2018-03-29T04:02:53.822Z,1000.10
2018-03-29T04:03:53.817Z,1000.12
2018-03-29T04:04:53.836Z,1000.13
2018-03-29T04:05:54.012Z,1000.12
2018-03-29T04:06:53.798Z,1000.12
2018-03-29T04:07:53.792Z,1000.13
2018-03-29T04:08:53.784Z,1000.18
2018-03-29T04:09:53.776Z,1000.17
2018-03-29T04:10:53.783Z,1000.18
2018-03-29T04:11:53.983Z,1000.17
2018-03-29T04:12:53.760Z,1000.18
2018-03-29T04:13:53.755Z,1000.22
2018-03-29T04:14:53.757Z,1000.22
2018-03-29T04:15:53.753Z,1000.22
2018-03-29T04:16:53.967Z,1000.23
2018-03-29T04:17:53.732Z,1000.23
2018-03-29T04:18:53.764Z,1000.22
2018-03-29T04:19:53.728Z,1000.24
2018-03-29T04:20:53.725Z,1000.26
2018-03-29T04:21:53.725Z,1000.25
2018-03-29T04:22:53.921Z,1000.26
2018-03-29T04:23:53.692Z,1000.22
2018-03-29T04:24:53.699Z,1000.26
2018-03-29T04:25:53.690Z,1000.26
2018-03-29T04:26:53.672Z,1000.26
2018-03-29T04:27:53.702Z,1000.23
2018-03-29T04:28:53.685Z,1000.19
2018-03-29T04:29:53.665Z,1000.22
2018-03-29T04:30:53.659Z,1000.25
2018-03-29T04:31:53.843Z,1000.25
2018-03-29T04:32:53.692Z,1000.25
2018-03-29T04:33:53.847Z,1000.26
2018-03-29T04:34:53.643Z,1000.25
2018-03-29T04:35:53.617Z,1000.24
2018-03-29T04:36:53.610Z,1000.20
2018-03-29T04:37:53.618Z,1000.21
2018-03-29T04:38:53.599Z,1000.23
2018-03-29T04:39:53.612Z,1000.22
2018-03-29T04:40:53.596Z,1000.21
2018-03-29T04:41:53.788Z,1000.18
2018-03-29T04:42:53.605Z,1000.19
2018-03-29T04:43:53.772Z,1000.15
2018-03-29T04:44:53.586Z,1000.16
2018-03-29T04:45:53.554Z,1000.13
2018-03-29T04:46:53.548Z,1000.10
2018-03-29T04:47:53.552Z,1000.14
2018-03-29T04:48:53.548Z,1000.14
2018-03-29T04:49:53.533Z,1000.14
2018-03-29T04:50:53.536Z,1000.12
2018-03-29T04:51:53.530Z,1000.16
2018-03-29T04:52:53.517Z,1000.15
2018-03-29T04:53:53.722Z,1000.15
2018-03-29T04:54:53.712Z,1000.13
2018-03-29T04:55:53.698Z,1000.16
2018-03-29T04:56:53.493Z,1000.16
2018-03-29T04:57:53.486Z,1000.15
2018-03-29T04:58:53.531Z,1000.16
2018-03-29T04:59:53.513Z,1000.16
2018-03-29T05:00:53.502Z,1000.14
2018-03-29T05:01:53.497Z,1000.19
2018-03-29T05:02:53.470Z,1000.19
2018-03-29T05:03:53.673Z,1000.17
2018-03-29T05:04:53.453Z,1000.20
2018-03-29T05:05:53.466Z,1000.24
2018-03-29T05:06:53.443Z,1000.25
2018-03-29T05:07:53.640Z,1000.23
2018-03-29T05:08:53.436Z,1000.25
2018-03-29T05:09:53.418Z,1000.26
2018-03-29T05:10:53.435Z,1000.29
2018-03-29T05:11:53.427Z,1000.28
2018-03-29T05:12:53.426Z,1000.29
2018-03-29T05:13:53.429Z,1000.21
2018-03-29T05:14:53.590Z,1000.27
2018-03-29T05:15:53.432Z,1000.26
2018-03-29T05:16:53.394Z,1000.27
2018-03-29T05:17:53.376Z,1000.30
2018-03-29T05:18:53.358Z,1000.28
2018-03-29T05:19:53.356Z,1000.30
2018-03-29T05:20:53.349Z,1000.31
2018-03-29T05:21:53.558Z,1000.28
2018-03-29T05:22:53.363Z,1000.32
2018-03-29T05:23:53.332Z,1000.30
2018-03-29T05:24:53.336Z,1000.33
2018-03-29T05:25:53.324Z,1000.35
2018-03-29T05:26:53.529Z,1000.31
2018-03-29T05:27:53.311Z,1000.34
2018-03-29T05:28:53.323Z,1000.33
2018-03-29T05:29:53.302Z,1000.34
2018-03-29T05:30:53.288Z,1000.35
2018-03-29T05:31:53.502Z,1000.33
2018-03-29T05:32:53.279Z,1000.35
2018-03-29T05:33:53.271Z,1000.34
2018-03-29T05:34:53.277Z,1000.34
2018-03-29T05:35:53.262Z,1000.31
2018-03-29T05:36:53.268Z,1000.33
2018-03-29T05:37:53.250Z,1000.35
2018-03-29T05:38:53.446Z,1000.36
2018-03-29T05:39:53.246Z,1000.33
2018-03-29T05:40:53.237Z,1000.35
2018-03-29T05:41:53.237Z,1000.36
2018-03-29T05:42:53.434Z,1000.32
2018-03-29T05:43:53.225Z,1000.34
2018-03-29T05:44:53.223Z,1000.37
2018-03-29T05:45:53.200Z,1000.38
2018-03-29T05:46:53.399Z,1000.41
2018-03-29T05:47:53.393Z,1000.40
2018-03-29T05:48:53.433Z,1000.42
2018-03-29T05:49:53.187Z,1000.36
2018-03-29T05:50:53.173Z,1000.37
2018-03-29T05:51:53.176Z,1000.35
2018-03-29T05:52:53.161Z,1000.34
2018-03-29T05:53:53.166Z,1000.37
2018-03-29T05:54:53.157Z,1000.35
2018-03-29T05:55:53.356Z,1000.35
2018-03-29T05:56:53.145Z,1000.37
2018-03-29T05:57:53.333Z,1000.33
2018-03-29T05:58:53.328Z,1000.36
2018-03-29T05:59:53.117Z,1000.34
2018-03-29T06:00:53.325Z,1000.34
2018-03-29T06:01:53.322Z,1000.39
2018-03-29T06:02:53.120Z,1000.34
2018-03-29T06:03:53.104Z,1000.36
2018-03-29T06:04:53.306Z,1000.36
2018-03-29T06:05:53.082Z,1000.36
2018-03-29T06:06:53.087Z,1000.32
2018-03-29T06:07:53.081Z,1000.35
2018-03-29T06:08:53.075Z,1000.38
2018-03-29T06:09:53.070Z,1000.35
2018-03-29T06:10:53.063Z,1000.36
2018-03-29T06:11:53.043Z,1000.36
2018-03-29T06:12:53.040Z,1000.40
2018-03-29T06:13:53.052Z,1000.41
2018-03-29T06:14:53.044Z,1000.41
2018-03-29T06:15:53.026Z,1000.42
2018-03-29T06:16:53.040Z,1000.38
2018-03-29T06:17:53.013Z,1000.45
2018-03-29T06:18:53.005Z,1000.39
2018-03-29T06:19:53.231Z,1000.43
2018-03-29T06:20:52.996Z,1000.41
2018-03-29T06:21:52.992Z,1000.43
2018-03-29T06:22:53.197Z,1000.42
2018-03-29T06:23:53.190Z,1000.41
2018-03-29T06:24:52.970Z,1000.43
2018-03-29T06:25:53.004Z,1000.43
2018-03-29T06:26:52.969Z,1000.44
2018-03-29T06:27:52.953Z,1000.43
2018-03-29T06:28:53.152Z,1000.46
2018-03-29T06:29:53.161Z,1000.44
2018-03-29T06:30:52.938Z,1000.45
2018-03-29T06:31:52.929Z,1000.48
2018-03-29T06:32:52.964Z,1000.41
2018-03-29T06:33:52.936Z,1000.43
2018-03-29T06:34:52.938Z,1000.42
2018-03-29T06:35:52.916Z,1000.47
2018-03-29T06:36:52.925Z,1000.45
2018-03-29T06:37:52.893Z,1000.47
2018-03-29T06:38:52.901Z,1000.48
2018-03-29T06:39:52.892Z,1000.51
2018-03-29T06:40:52.879Z,1000.53
2018-03-29T06:41:53.086Z,1000.52
2018-03-29T06:42:52.868Z,1000.55
2018-03-29T06:43:52.860Z,1000.53
2018-03-29T06:44:52.859Z,1000.53
2018-03-29T06:45:52.878Z,1000.55
2018-03-29T06:46:52.844Z,1000.54
2018-03-29T06:47:53.043Z,1000.57
2018-03-29T06:48:53.036Z,1000.52
2018-03-29T06:49:52.828Z,1000.53
2018-03-29T06:50:53.024Z,1000.60
2018-03-29T06:51:52.838Z,1000.57
2018-03-29T06:52:52.835Z,1000.60
2018-03-29T06:53:52.814Z,1000.61
2018-03-29T06:54:53.010Z,1000.65
2018-03-29T06:55:52.805Z,1000.66
2018-03-29T06:56:52.797Z,1000.59
2018-03-29T06:57:52.780Z,1000.60
2018-03-29T06:58:52.783Z,1000.62
2018-03-29T06:59:52.779Z,1000.60
2018-03-29T07:00:52.767Z,1000.64
2018-03-29T07:01:52.780Z,1000.62
2018-03-29T07:02:52.963Z,1000.61
2018-03-29T07:03:52.748Z,1000.57
2018-03-29T07:04:52.766Z,1000.60
2018-03-29T07:05:52.945Z,1000.64
2018-03-29T07:06:52.728Z,1000.63
2018-03-29T07:07:52.929Z,1000.64
2018-03-29T07:08:52.923Z,1000.65
2018-03-29T07:09:52.722Z,1000.67
2018-03-29T07:10:52.718Z,1000.65
2018-03-29T07:11:52.696Z,1000.64
2018-03-29T07:12:52.696Z,1000.66
2018-03-29T07:13:52.699Z,1000.67
2018-03-29T07:14:52.706Z,1000.70
2018-03-29T07:15:52.879Z,1000.71
2018-03-29T07:16:52.691Z,1000.66
2018-03-29T07:17:52.678Z,1000.76
2018-03-29T07:18:52.683Z,1000.75
2018-03-29T07:19:52.663Z,1000.69
2018-03-29T07:20:52.861Z,1000.71
2018-03-29T07:21:52.656Z,1000.68
2018-03-29T07:22:52.645Z,1000.73
2018-03-29T07:23:52.626Z,1000.72
2018-03-29T07:24:52.623Z,1000.72
2018-03-29T07:25:52.630Z,1000.73
2018-03-29T07:26:52.824Z,1000.71
2018-03-29T07:27:52.844Z,1000.72
2018-03-29T07:28:52.611Z,1000.72
2018-03-29T07:29:52.604Z,1000.77
2018-03-29T07:30:52.794Z,1000.76
2018-03-29T07:31:52.583Z,1000.68
2018-03-29T07:32:52.576Z,1000.72
2018-03-29T07:33:52.587Z,1000.67
2018-03-29T07:34:52.609Z,1000.76
2018-03-29T07:35:52.555Z,1000.69
2018-03-29T07:36:52.765Z,1000.74
2018-03-29T07:37:52.555Z,1000.75
2018-03-29T07:38:52.756Z,1000.81
2018-03-29T07:39:52.547Z,1000.78
2018-03-29T07:40:52.537Z,1000.82
2018-03-29T07:41:52.546Z,1000.79
2018-03-29T07:42:52.515Z,1000.88
2018-03-29T07:43:52.522Z,1000.84
2018-03-29T07:44:52.518Z,1000.85
2018-03-29T07:45:52.502Z,1000.89
2018-03-29T07:46:52.504Z,1000.84
2018-03-29T07:47:52.486Z,1000.87
2018-03-29T07:48:52.505Z,1000.89
2018-03-29T07:49:52.483Z,1000.89
2018-03-29T07:50:52.478Z,1000.89
2018-03-29T07:51:52.475Z,1000.90
2018-03-29T07:52:52.477Z,1000.94
2018-03-29T07:53:52.464Z,1000.92
2018-03-29T07:54:52.667Z,1000.92
2018-03-29T07:55:52.651Z,1000.94
2018-03-29T07:56:52.436Z,1000.92
2018-03-29T07:57:52.475Z,1000.91
2018-03-29T07:58:52.635Z,1000.92
2018-03-29T07:59:52.416Z,1000.89
2018-03-29T08:00:52.423Z,1000.90
2018-03-29T08:01:52.618Z,1000.92
2018-03-29T08:02:52.423Z,1000.95
2018-03-29T08:03:52.595Z,1000.97
2018-03-29T08:04:52.407Z,1000.98
2018-03-29T08:05:52.587Z,1000.97
2018-03-29T08:06:52.373Z,1000.97
2018-03-29T08:07:52.592Z,1001.01
2018-03-29T08:08:52.372Z,1001.02
2018-03-29T08:09:52.559Z,1001.02
2018-03-29T08:10:52.358Z,1001.00
2018-03-29T08:11:52.557Z,1001.01
2018-03-29T08:12:52.541Z,1001.01
2018-03-29T08:13:52.610Z,1001.03
2018-03-29T08:14:52.338Z,1001.06
2018-03-29T08:15:52.332Z,1001.04
2018-03-29T08:16:52.529Z,1001.04
2018-03-29T08:17:52.339Z,1001.05
2018-03-29T08:18:52.312Z,1001.07
2018-03-29T08:19:52.298Z,1001.07
2018-03-29T08:20:52.302Z,1001.02
2018-03-29T08:21:52.285Z,1001.11
2018-03-29T08:22:52.504Z,1001.05
2018-03-29T08:23:52.271Z,1001.12
2018-03-29T08:24:52.295Z,1001.14
2018-03-29T08:25:52.489Z,1001.12
2018-03-29T08:26:52.474Z,1001.08
2018-03-29T08:27:52.464Z,1001.13
2018-03-29T08:28:52.257Z,1001.13
2018-03-29T08:29:52.264Z,1001.13
2018-03-29T08:30:52.436Z,1001.13
2018-03-29T08:31:52.440Z,1001.11
2018-03-29T08:32:52.234Z,1001.14
2018-03-29T08:33:52.214Z,1001.13
2018-03-29T08:34:52.430Z,1001.16
2018-03-29T08:35:52.214Z,1001.18
2018-03-29T08:36:52.196Z,1001.14
2018-03-29T08:37:52.203Z,1001.16
2018-03-29T08:38:52.398Z,1001.20
2018-03-29T08:39:52.186Z,1001.13
2018-03-29T08:40:52.185Z,1001.15
2018-03-29T08:41:52.184Z,1001.14
2018-03-29T08:42:52.214Z,1001.19
2018-03-29T08:43:52.151Z,1001.22
2018-03-29T08:44:52.161Z,1001.26
2018-03-29T08:45:52.143Z,1001.19
2018-03-29T08:46:52.145Z,1001.22
2018-03-29T08:47:52.141Z,1001.24
2018-03-29T08:48:52.144Z,1001.24
2018-03-29T08:49:52.120Z,1001.25
2018-03-29T08:50:52.112Z,1001.23
2018-03-29T08:51:52.115Z,1001.27
2018-03-29T08:52:52.101Z,1001.33
2018-03-29T08:53:52.297Z,1001.28
2018-03-29T08:54:52.289Z,1001.29
2018-03-29T08:55:52.097Z,1001.30
2018-03-29T08:56:52.280Z,1001.28
2018-03-29T08:57:52.282Z,1001.28
2018-03-29T08:58:52.069Z,1001.28
2018-03-29T08:59:52.065Z,1001.31
2018-03-29T09:00:52.061Z,1001.23
2018-03-29T09:01:52.055Z,1001.27
2018-03-29T09:02:52.039Z,1001.24
2018-03-29T09:03:52.033Z,1001.22
2018-03-29T09:04:52.037Z,1001.26
2018-03-29T09:05:52.236Z,1001.22
2018-03-29T09:06:52.024Z,1001.24
2018-03-29T09:07:52.017Z,1001.21
2018-03-29T09:08:52.005Z,1001.27
2018-03-29T09:09:52.210Z,1001.25
2018-03-29T09:10:52.013Z,1001.26
2018-03-29T09:11:51.995Z,1001.25
2018-03-29T09:12:51.976Z,1001.25
2018-03-29T09:13:51.984Z,1001.22
2018-03-29T09:14:51.987Z,1001.26
2018-03-29T09:15:52.171Z,1001.28
2018-03-29T09:16:52.152Z,1001.29
2018-03-29T09:17:51.947Z,1001.29
2018-03-29T09:18:51.950Z,1001.32
2018-03-29T09:19:51.933Z,1001.30
2018-03-29T09:20:52.150Z,1001.27
2018-03-29T09:21:52.145Z,1001.33
2018-03-29T09:22:51.913Z,1001.34
2018-03-29T09:23:51.931Z,1001.34
2018-03-29T09:24:51.931Z,1001.32
2018-03-29T09:25:52.135Z,1001.37
2018-03-29T09:26:51.907Z,1001.41
2018-03-29T09:27:51.896Z,1001.41
2018-03-29T09:28:51.893Z,1001.41
2018-03-29T09:29:51.894Z,1001.41
2018-03-29T09:30:52.070Z,1001.39
2018-03-29T09:31:51.872Z,1001.42
2018-03-29T09:32:51.856Z,1001.44
2018-03-29T09:33:51.871Z,1001.43
2018-03-29T09:34:51.846Z,1001.48
2018-03-29T09:35:51.840Z,1001.44
2018-03-29T09:36:51.834Z,1001.44
2018-03-29T09:37:51.828Z,1001.45
2018-03-29T09:38:51.819Z,1001.51
2018-03-29T09:39:51.817Z,1001.48
2018-03-29T09:40:51.812Z,1001.48
2018-03-29T09:41:51.819Z,1001.48
2018-03-29T09:42:51.797Z,1001.48
2018-03-29T09:43:51.805Z,1001.52
2018-03-29T09:44:51.798Z,1001.47
2018-03-29T09:45:51.778Z,1001.49
2018-03-29T09:46:51.799Z,1001.45
2018-03-29T09:47:51.772Z,1001.47
2018-03-29T09:48:51.764Z,1001.47
2018-03-29T09:49:51.761Z,1001.50
2018-03-29T09:50:51.769Z,1001.49
2018-03-29T09:51:51.970Z,1001.53
2018-03-29T09:52:51.752Z,1001.53
2018-03-29T09:53:51.940Z,1001.52
2018-03-29T09:54:51.730Z,1001.56
2018-03-29T09:55:51.725Z,1001.53
2018-03-29T09:56:51.746Z,1001.53
2018-03-29T09:57:51.948Z,1001.50
2018-03-29T09:58:51.930Z,1001.53
2018-03-29T09:59:51.930Z,1001.53
2018-03-29T10:00:51.699Z,1001.50
2018-03-29T10:01:51.706Z,1001.52
2018-03-29T10:02:51.695Z,1001.51
2018-03-29T10:03:51.680Z,1001.51
2018-03-29T10:04:51.701Z,1001.56
2018-03-29T10:05:51.680Z,1001.51
2018-03-29T10:06:51.677Z,1001.52
2018-03-29T10:07:51.696Z,1001.54
2018-03-29T10:08:51.656Z,1001.52
2018-03-29T10:09:51.649Z,1001.56
2018-03-29T10:10:51.846Z,1001.53
2018-03-29T10:11:51.649Z,1001.55
2018-03-29T10:12:51.631Z,1001.55
2018-03-29T10:13:51.652Z,1001.56
2018-03-29T10:14:51.627Z,1001.59
2018-03-29T10:15:51.632Z,1001.58
2018-03-29T10:16:51.816Z,1001.55
2018-03-29T10:17:51.621Z,1001.52
2018-03-29T10:18:51.641Z,1001.56
2018-03-29T10:19:51.597Z,1001.52
2018-03-29T10:20:51.595Z,1001.48
2018-03-29T10:21:51.594Z,1001.50
2018-03-29T10:22:51.578Z,1001.48
2018-03-29T10:23:51.577Z,1001.46
2018-03-29T10:24:51.570Z,1001.47
2018-03-29T10:25:51.568Z,1001.47
2018-03-29T10:26:51.562Z,1001.44
2018-03-29T10:27:51.773Z,1001.43
2018-03-29T10:28:51.556Z,1001.40
2018-03-29T10:29:51.750Z,1001.44
2018-03-29T10:30:51.758Z,1001.43
2018-03-29T10:31:51.541Z,1001.40
2018-03-29T10:32:51.542Z,1001.44
2018-03-29T10:33:51.538Z,1001.41
2018-03-29T10:34:51.533Z,1001.39
2018-03-29T10:35:51.751Z,1001.39
2018-03-29T10:36:51.517Z,1001.31
2018-03-29T10:37:51.510Z,1001.27
2018-03-29T10:38:51.519Z,1001.26
2018-03-29T10:39:51.510Z,1001.22
2018-03-29T10:40:51.498Z,1001.25
2018-03-29T10:41:51.494Z,1001.26
2018-03-29T10:42:51.497Z,1001.28
2018-03-29T10:43:51.492Z,1001.26
2018-03-29T10:44:51.477Z,1001.21
2018-03-29T10:45:51.475Z,1001.25
2018-03-29T10:46:51.672Z,1001.22
2018-03-29T10:47:51.463Z,1001.20
2018-03-29T10:48:51.455Z,1001.24
2018-03-29T10:49:51.452Z,1001.19
2018-03-29T10:50:51.662Z,1001.20
2018-03-29T10:51:51.483Z,1001.20
2018-03-29T10:52:51.453Z,1001.28
2018-03-29T10:53:51.461Z,1001.28
2018-03-29T10:54:51.644Z,1001.25
2018-03-29T10:55:51.448Z,1001.28
2018-03-29T10:56:51.635Z,1001.29
2018-03-29T10:57:51.441Z,1001.26
2018-03-29T10:58:51.419Z,1001.28
2018-03-29T10:59:51.429Z,1001.26
2018-03-29T11:00:51.415Z,1001.32
2018-03-29T11:01:51.409Z,1001.31
2018-03-29T11:02:51.403Z,1001.28
2018-03-29T11:03:51.399Z,1001.30
2018-03-29T11:04:51.406Z,1001.33
2018-03-29T11:05:51.378Z,1001.36
2018-03-29T11:06:51.385Z,1001.33
2018-03-29T11:07:51.592Z,1001.36
2018-03-29T11:08:51.592Z,1001.38
2018-03-29T11:09:51.561Z,1001.35
2018-03-29T11:10:51.563Z,1001.34
2018-03-29T11:11:51.357Z,1001.34
2018-03-29T11:12:51.346Z,1001.32
2018-03-29T11:13:51.345Z,1001.32
2018-03-29T11:14:51.348Z,1001.27
2018-03-29T11:15:51.320Z,1001.20
2018-03-29T11:16:51.314Z,1001.20
2018-03-29T11:17:51.323Z,1001.25
2018-03-29T11:18:51.302Z,1001.26
2018-03-29T11:19:51.318Z,1001.26
2018-03-29T11:20:51.292Z,1001.25
2018-03-29T11:21:51.305Z,1001.25
2018-03-29T11:22:51.292Z,1001.30
2018-03-29T11:23:51.480Z,1001.31
2018-03-29T11:24:51.472Z,1001.31
2018-03-29T11:25:51.273Z,1001.30
2018-03-29T11:26:51.281Z,1001.31
2018-03-29T11:27:51.260Z,1001.28
2018-03-29T11:28:51.267Z,1001.30
2018-03-29T11:29:51.240Z,1001.36
2018-03-29T11:30:51.233Z,1001.38
2018-03-29T11:31:51.228Z,1001.42
2018-03-29T11:32:51.423Z,1001.45
2018-03-29T11:33:51.439Z,1001.56
2018-03-29T11:34:51.216Z,1001.65
2018-03-29T11:35:51.226Z,1001.68
2018-03-29T11:36:51.425Z,1001.71
2018-03-29T11:37:51.396Z,1001.64
2018-03-29T11:38:51.422Z,1001.54
2018-03-29T11:39:51.191Z,1001.51
2018-03-29T11:40:51.173Z,1001.50
2018-03-29T11:41:51.169Z,1001.46
2018-03-29T11:42:51.178Z,1001.45
2018-03-29T11:43:51.375Z,1001.44
2018-03-29T11:44:51.362Z,1001.48
2018-03-29T11:45:51.368Z,1001.47
2018-03-29T11:46:51.149Z,1001.49
2018-03-29T11:47:51.139Z,1001.49
2018-03-29T11:48:51.134Z,1001.50
2018-03-29T11:49:51.132Z,1001.51
2018-03-29T11:50:51.134Z,1001.49
2018-03-29T11:51:51.344Z,1001.44
2018-03-29T11:52:51.164Z,1001.49
2018-03-29T11:53:51.119Z,1001.46
2018-03-29T11:54:51.102Z,1001.47
2018-03-29T11:55:51.286Z,1001.43
2018-03-29T11:56:51.318Z,1001.43
2018-03-29T11:57:51.073Z,1001.40
2018-03-29T11:58:51.064Z,1001.39
2018-03-29T11:59:51.293Z,1001.41
2018-03-29T12:00:51.256Z,1001.42
2018-03-29T12:01:51.262Z,1001.41
2018-03-29T12:02:51.263Z,1001.42
2018-03-29T12:03:51.264Z,1001.37
2018-03-29T12:04:51.031Z,1001.39
2018-03-29T12:05:51.235Z,1001.44
2018-03-29T12:06:51.028Z,1001.41
2018-03-29T12:07:51.010Z,1001.43
2018-03-29T12:08:51.220Z,1001.44
2018-03-29T12:09:51.011Z,1001.38
2018-03-29T12:10:51.200Z,1001.45
2018-03-29T12:11:51.008Z,1001.48